sensor_id;sensor_type;location;lat;lon;timestamp;P1;durP1;ratioP1;P2;durP2;ratioP2
71734;SDS011;59577;52.122;5.406;2024-03-23T00:55:41;16.70;;;5.22;;
71734;SDS011;59577;52.122;5.406;2024-03-23T00:58:07;12.18;;;4.75;;
71734;SDS011;59577;52.122;5.406;2024-03-23T01:00:33;16.63;;;4.50;;
71734;SDS011;59577;52.122;5.406;2024-03-23T01:02:58;14.38;;;4.63;;
71734;SDS011;59577;52.122;5.406;2024-03-23T01:05:24;18.67;;;5.07;;
71734;SDS011;59577;52.122;5.406;2024-03-23T01:07:50;17.60;;;5.40;;
71734;SDS011;59577;52.122;5.406;2024-03-23T01:10:15;16.40;;;4.77;;
71734;SDS011;59577;52.122;5.406;2024-03-23T01:12:41;19.10;;;5.37;;
71734;SDS011;59577;52.122;5.406;2024-03-23T01:15:06;18.23;;;5.13;;
71734;SDS011;59577;52.122;5.406;2024-03-23T01:17:32;16.75;;;5.85;;
71734;SDS011;59577;52.122;5.406;2024-03-23T01:19:57;15.83;;;5.37;;
71734;SDS011;59577;52.122;5.406;2024-03-23T01:22:23;16.17;;;5.35;;
71734;SDS011;59577;52.122;5.406;2024-03-23T01:24:48;17.23;;;5.33;;
71734;SDS011;59577;52.122;5.406;2024-03-23T01:27:14;14.40;;;5.50;;
71734;SDS011;59577;52.122;5.406;2024-03-23T01:29:39;13.52;;;5.22;;
71734;SDS011;59577;52.122;5.406;2024-03-23T01:32:05;18.90;;;5.83;;
71734;SDS011;59577;52.122;5.406;2024-03-23T01:34:32;14.70;;;4.63;;
71734;SDS011;59577;52.122;5.406;2024-03-23T01:36:58;14.10;;;5.30;;
71734;SDS011;59577;52.122;5.406;2024-03-23T01:39:24;23.52;;;5.85;;
71734;SDS011;59577;52.122;5.406;2024-03-23T01:41:50;27.90;;;5.65;;
71734;SDS011;59577;52.122;5.406;2024-03-23T01:44:16;20.50;;;5.77;;
71734;SDS011;59577;52.122;5.406;2024-03-23T01:46:42;13.10;;;5.05;;
71734;SDS011;59577;52.122;5.406;2024-03-23T01:49:09;19.63;;;5.80;;
71734;SDS011;59577;52.122;5.406;2024-03-23T01:51:35;17.85;;;4.93;;
71734;SDS011;59577;52.122;5.406;2024-03-23T01:54:02;21.50;;;4.88;;
71734;SDS011;59577;52.122;5.406;2024-03-23T01:56:31;13.53;;;5.57;;
71734;SDS011;59577;52.122;5.406;2024-03-23T01:58:58;18.38;;;5.38;;
71734;SDS011;59577;52.122;5.406;2024-03-23T02:01:25;20.58;;;5.45;;
71734;SDS011;59577;52.122;5.406;2024-03-23T02:03:51;20.60;;;4.83;;
71734;SDS011;59577;52.122;5.406;2024-03-23T02:06:16;16.90;;;5.53;;
71734;SDS011;59577;52.122;5.406;2024-03-23T02:08:44;15.70;;;5.03;;
71734;SDS011;59577;52.122;5.406;2024-03-23T02:11:09;13.85;;;4.93;;
71734;SDS011;59577;52.122;5.406;2024-03-23T02:13:35;17.63;;;5.13;;
71734;SDS011;59577;52.122;5.406;2024-03-23T02:16:01;17.50;;;5.33;;
71734;SDS011;59577;52.122;5.406;2024-03-23T02:18:26;16.50;;;4.93;;
71734;SDS011;59577;52.122;5.406;2024-03-23T02:20:52;16.70;;;4.77;;
71734;SDS011;59577;52.122;5.406;2024-03-23T02:23:17;13.68;;;4.72;;
71734;SDS011;59577;52.122;5.406;2024-03-23T02:25:43;14.53;;;4.53;;
71734;SDS011;59577;52.122;5.406;2024-03-23T02:28:09;19.90;;;5.35;;
71734;SDS011;59577;52.122;5.406;2024-03-23T02:30:35;22.42;;;5.15;;
71734;SDS011;59577;52.122;5.406;2024-03-23T02:33:00;12.40;;;4.68;;
71734;SDS011;59577;52.122;5.406;2024-03-23T02:35:26;17.47;;;4.87;;
71734;SDS011;59577;52.122;5.406;2024-03-23T02:37:52;14.75;;;4.90;;
71734;SDS011;59577;52.122;5.406;2024-03-23T02:40:19;19.57;;;5.00;;
71734;SDS011;59577;52.122;5.406;2024-03-23T02:42:46;17.75;;;4.88;;
71734;SDS011;59577;52.122;5.406;2024-03-23T02:45:11;14.70;;;4.85;;
71734;SDS011;59577;52.122;5.406;2024-03-23T02:47:37;15.53;;;4.63;;
71734;SDS011;59577;52.122;5.406;2024-03-23T02:50:03;17.45;;;4.38;;
71734;SDS011;59577;52.122;5.406;2024-03-23T02:52:29;14.15;;;5.38;;
71734;SDS011;59577;52.122;5.406;2024-03-23T02:54:55;14.80;;;4.10;;
71734;SDS011;59577;52.122;5.406;2024-03-23T02:57:20;16.17;;;4.37;;
71734;SDS011;59577;52.122;5.406;2024-03-23T02:59:46;15.35;;;3.95;;
71734;SDS011;59577;52.122;5.406;2024-03-23T03:02:12;18.97;;;4.13;;
71734;SDS011;59577;52.122;5.406;2024-03-23T03:04:38;12.52;;;4.80;;
71734;SDS011;59577;52.122;5.406;2024-03-23T03:07:04;19.67;;;4.50;;
71734;SDS011;59577;52.122;5.406;2024-03-23T03:09:29;15.30;;;3.92;;
71734;SDS011;59577;52.122;5.406;2024-03-23T03:11:55;10.90;;;4.53;;
71734;SDS011;59577;52.122;5.406;2024-03-23T03:14:21;11.57;;;3.57;;
71734;SDS011;59577;52.122;5.406;2024-03-23T03:16:46;15.05;;;4.20;;
71734;SDS011;59577;52.122;5.406;2024-03-23T03:19:12;14.57;;;3.73;;
71734;SDS011;59577;52.122;5.406;2024-03-23T03:21:37;14.23;;;3.50;;
71734;SDS011;59577;52.122;5.406;2024-03-23T03:24:03;12.50;;;3.95;;
71734;SDS011;59577;52.122;5.406;2024-03-23T03:26:31;10.07;;;3.40;;
71734;SDS011;59577;52.122;5.406;2024-03-23T03:28:57;13.45;;;3.58;;
71734;SDS011;59577;52.122;5.406;2024-03-23T03:31:22;19.53;;;4.17;;
71734;SDS011;59577;52.122;5.406;2024-03-23T03:33:49;11.13;;;4.03;;
71734;SDS011;59577;52.122;5.406;2024-03-23T03:36:15;15.00;;;3.95;;
71734;SDS011;59577;52.122;5.406;2024-03-23T03:38:41;15.40;;;3.90;;
71734;SDS011;59577;52.122;5.406;2024-03-23T03:41:07;7.17;;;3.40;;
71734;SDS011;59577;52.122;5.406;2024-03-23T03:43:33;11.70;;;3.65;;
71734;SDS011;59577;52.122;5.406;2024-03-23T03:45:59;13.20;;;3.10;;
71734;SDS011;59577;52.122;5.406;2024-03-23T03:48:25;10.50;;;3.75;;
71734;SDS011;59577;52.122;5.406;2024-03-23T03:50:52;6.63;;;3.07;;
71734;SDS011;59577;52.122;5.406;2024-03-23T03:53:18;12.68;;;3.90;;
71734;SDS011;59577;52.122;5.406;2024-03-23T03:55:44;10.85;;;3.13;;
71734;SDS011;59577;52.122;5.406;2024-03-23T03:58:10;14.18;;;4.25;;
71734;SDS011;59577;52.122;5.406;2024-03-23T04:00:35;14.07;;;3.87;;
71734;SDS011;59577;52.122;5.406;2024-03-23T04:03:01;11.47;;;3.93;;
71734;SDS011;59577;52.122;5.406;2024-03-23T04:05:27;13.07;;;3.65;;
71734;SDS011;59577;52.122;5.406;2024-03-23T04:07:53;8.82;;;3.42;;
71734;SDS011;59577;52.122;5.406;2024-03-23T04:10:19;12.13;;;3.60;;
71734;SDS011;59577;52.122;5.406;2024-03-23T04:12:45;13.00;;;3.70;;
71734;SDS011;59577;52.122;5.406;2024-03-23T04:15:11;6.43;;;3.38;;
71734;SDS011;59577;52.122;5.406;2024-03-23T04:17:37;9.80;;;3.17;;
71734;SDS011;59577;52.122;5.406;2024-03-23T04:20:03;9.25;;;3.40;;
71734;SDS011;59577;52.122;5.406;2024-03-23T04:22:30;9.55;;;3.30;;
71734;SDS011;59577;52.122;5.406;2024-03-23T04:24:56;5.73;;;3.00;;
71734;SDS011;59577;52.122;5.406;2024-03-23T04:27:23;12.10;;;2.97;;
71734;SDS011;59577;52.122;5.406;2024-03-23T04:29:49;6.63;;;3.05;;
71734;SDS011;59577;52.122;5.406;2024-03-23T04:32:15;10.43;;;2.90;;
71734;SDS011;59577;52.122;5.406;2024-03-23T04:34:42;11.95;;;3.63;;
71734;SDS011;59577;52.122;5.406;2024-03-23T04:37:08;8.35;;;3.47;;
71734;SDS011;59577;52.122;5.406;2024-03-23T04:39:35;13.50;;;3.50;;
71734;SDS011;59577;52.122;5.406;2024-03-23T04:42:01;11.68;;;3.70;;
71734;SDS011;59577;52.122;5.406;2024-03-23T04:44:28;11.27;;;3.10;;
71734;SDS011;59577;52.122;5.406;2024-03-23T04:46:53;8.75;;;3.15;;
71734;SDS011;59577;52.122;5.406;2024-03-23T04:49:19;6.07;;;3.43;;
71734;SDS011;59577;52.122;5.406;2024-03-23T04:51:44;8.65;;;3.05;;
71734;SDS011;59577;52.122;5.406;2024-03-23T04:54:14;11.25;;;2.45;;
71734;SDS011;59577;52.122;5.406;2024-03-23T04:56:40;5.82;;;2.67;;
71734;SDS011;59577;52.122;5.406;2024-03-23T04:59:06;8.88;;;2.75;;
71734;SDS011;59577;52.122;5.406;2024-03-23T05:01:32;11.37;;;2.43;;
71734;SDS011;59577;52.122;5.406;2024-03-23T05:03:58;11.05;;;2.70;;
71734;SDS011;59577;52.122;5.406;2024-03-23T05:06:24;9.70;;;2.75;;
71734;SDS011;59577;52.122;5.406;2024-03-23T05:08:50;12.88;;;2.85;;
71734;SDS011;59577;52.122;5.406;2024-03-23T05:11:18;9.07;;;2.40;;
71734;SDS011;59577;52.122;5.406;2024-03-23T05:13:44;8.43;;;1.75;;
71734;SDS011;59577;52.122;5.406;2024-03-23T05:16:10;16.67;;;2.40;;
71734;SDS011;59577;52.122;5.406;2024-03-23T05:18:36;14.60;;;2.67;;
71734;SDS011;59577;52.122;5.406;2024-03-23T05:21:01;3.87;;;1.40;;
71734;SDS011;59577;52.122;5.406;2024-03-23T05:23:28;4.77;;;1.50;;
71734;SDS011;59577;52.122;5.406;2024-03-23T05:25:54;13.20;;;2.10;;
71734;SDS011;59577;52.122;5.406;2024-03-23T05:28:22;10.57;;;1.88;;
71734;SDS011;59577;52.122;5.406;2024-03-23T05:30:51;6.10;;;1.43;;
71734;SDS011;59577;52.122;5.406;2024-03-23T05:33:21;6.45;;;1.88;;
71734;SDS011;59577;52.122;5.406;2024-03-23T05:35:46;6.57;;;1.77;;
71734;SDS011;59577;52.122;5.406;2024-03-23T05:38:21;7.95;;;1.73;;
71734;SDS011;59577;52.122;5.406;2024-03-23T05:40:56;9.88;;;2.10;;
71734;SDS011;59577;52.122;5.406;2024-03-23T05:43:22;5.70;;;2.00;;
71734;SDS011;59577;52.122;5.406;2024-03-23T05:45:58;7.07;;;2.03;;
71734;SDS011;59577;52.122;5.406;2024-03-23T05:48:25;5.63;;;1.83;;
71734;SDS011;59577;52.122;5.406;2024-03-23T05:50:51;5.20;;;1.43;;
71734;SDS011;59577;52.122;5.406;2024-03-23T05:53:18;11.63;;;1.52;;
71734;SDS011;59577;52.122;5.406;2024-03-23T05:55:47;13.55;;;1.85;;
71734;SDS011;59577;52.122;5.406;2024-03-23T05:58:17;10.85;;;1.30;;
71734;SDS011;59577;52.122;5.406;2024-03-23T06:00:44;8.63;;;1.33;;
71734;SDS011;59577;52.122;5.406;2024-03-23T06:03:10;7.93;;;1.13;;
71734;SDS011;59577;52.122;5.406;2024-03-23T06:05:36;5.82;;;0.95;;
71734;SDS011;59577;52.122;5.406;2024-03-23T06:08:02;13.02;;;1.70;;
71734;SDS011;59577;52.122;5.406;2024-03-23T06:10:28;8.00;;;1.00;;
71734;SDS011;59577;52.122;5.406;2024-03-23T06:12:54;4.80;;;1.67;;
71734;SDS011;59577;52.122;5.406;2024-03-23T06:15:19;9.20;;;0.93;;
71734;SDS011;59577;52.122;5.406;2024-03-23T06:17:45;9.27;;;1.45;;
71734;SDS011;59577;52.122;5.406;2024-03-23T06:20:11;12.15;;;1.10;;
71734;SDS011;59577;52.122;5.406;2024-03-23T06:22:38;7.60;;;1.10;;
71734;SDS011;59577;52.122;5.406;2024-03-23T06:25:03;4.53;;;0.70;;
71734;SDS011;59577;52.122;5.406;2024-03-23T06:27:29;3.85;;;1.33;;
71734;SDS011;59577;52.122;5.406;2024-03-23T06:29:55;8.60;;;1.17;;
71734;SDS011;59577;52.122;5.406;2024-03-23T06:32:21;6.65;;;0.88;;
71734;SDS011;59577;52.122;5.406;2024-03-23T06:34:46;11.23;;;0.80;;
71734;SDS011;59577;52.122;5.406;2024-03-23T06:37:12;11.33;;;1.10;;
71734;SDS011;59577;52.122;5.406;2024-03-23T06:39:38;6.78;;;0.73;;
71734;SDS011;59577;52.122;5.406;2024-03-23T06:42:04;7.53;;;1.25;;
71734;SDS011;59577;52.122;5.406;2024-03-23T06:44:30;8.23;;;0.77;;
71734;SDS011;59577;52.122;5.406;2024-03-23T06:46:55;6.72;;;0.75;;
71734;SDS011;59577;52.122;5.406;2024-03-23T06:49:22;4.77;;;0.77;;
71734;SDS011;59577;52.122;5.406;2024-03-23T06:51:48;8.75;;;1.13;;
71734;SDS011;59577;52.122;5.406;2024-03-23T06:54:13;4.75;;;0.73;;
71734;SDS011;59577;52.122;5.406;2024-03-23T06:56:39;3.43;;;0.37;;
71734;SDS011;59577;52.122;5.406;2024-03-23T06:59:04;5.67;;;1.03;;
71734;SDS011;59577;52.122;5.406;2024-03-23T07:01:30;4.50;;;0.97;;
71734;SDS011;59577;52.122;5.406;2024-03-23T07:03:55;10.63;;;0.80;;
71734;SDS011;59577;52.122;5.406;2024-03-23T07:06:21;5.60;;;0.80;;
71734;SDS011;59577;52.122;5.406;2024-03-23T07:08:46;4.87;;;0.70;;
71734;SDS011;59577;52.122;5.406;2024-03-23T07:11:12;4.82;;;0.75;;
71734;SDS011;59577;52.122;5.406;2024-03-23T07:13:44;5.83;;;1.23;;
71734;SDS011;59577;52.122;5.406;2024-03-23T07:16:09;5.90;;;1.25;;
71734;SDS011;59577;52.122;5.406;2024-03-23T07:18:35;5.27;;;1.10;;
71734;SDS011;59577;52.122;5.406;2024-03-23T07:21:00;8.03;;;1.27;;
71734;SDS011;59577;52.122;5.406;2024-03-23T07:23:27;4.63;;;1.08;;
71734;SDS011;59577;52.122;5.406;2024-03-23T07:25:56;8.33;;;1.40;;
71734;SDS011;59577;52.122;5.406;2024-03-23T07:28:29;3.88;;;0.90;;
71734;SDS011;59577;52.122;5.406;2024-03-23T07:31:02;6.32;;;0.90;;
71734;SDS011;59577;52.122;5.406;2024-03-23T07:33:32;4.20;;;0.98;;
71734;SDS011;59577;52.122;5.406;2024-03-23T07:35:58;5.07;;;1.10;;
71734;SDS011;59577;52.122;5.406;2024-03-23T07:38:26;7.33;;;1.23;;
71734;SDS011;59577;52.122;5.406;2024-03-23T07:40:52;5.60;;;0.93;;
71734;SDS011;59577;52.122;5.406;2024-03-23T07:43:21;5.85;;;1.40;;
71734;SDS011;59577;52.122;5.406;2024-03-23T07:45:53;8.90;;;0.98;;
71734;SDS011;59577;52.122;5.406;2024-03-23T07:48:20;5.65;;;1.10;;
71734;SDS011;59577;52.122;5.406;2024-03-23T07:51:10;5.33;;;0.90;;
71734;SDS011;59577;52.122;5.406;2024-03-23T07:53:35;6.75;;;1.17;;
71734;SDS011;59577;52.122;5.406;2024-03-23T07:56:08;4.00;;;1.15;;
71734;SDS011;59577;52.122;5.406;2024-03-23T07:58:35;6.55;;;1.20;;
71734;SDS011;59577;52.122;5.406;2024-03-23T08:03:33;5.97;;;1.07;;
71734;SDS011;59577;52.122;5.406;2024-03-23T08:06:06;4.18;;;0.80;;
71734;SDS011;59577;52.122;5.406;2024-03-23T08:08:54;5.30;;;0.63;;
71734;SDS011;59577;52.122;5.406;2024-03-23T08:11:27;9.55;;;1.10;;
71734;SDS011;59577;52.122;5.406;2024-03-23T08:13:54;6.75;;;0.80;;
71734;SDS011;59577;52.122;5.406;2024-03-23T08:16:19;4.67;;;0.70;;
71734;SDS011;59577;52.122;5.406;2024-03-23T08:18:45;5.25;;;1.00;;
71734;SDS011;59577;52.122;5.406;2024-03-23T08:21:11;6.30;;;0.60;;
71734;SDS011;59577;52.122;5.406;2024-03-23T08:23:36;5.38;;;0.63;;
71734;SDS011;59577;52.122;5.406;2024-03-23T08:26:04;5.65;;;1.00;;
71734;SDS011;59577;52.122;5.406;2024-03-23T08:28:37;7.18;;;0.80;;
71734;SDS011;59577;52.122;5.406;2024-03-23T08:31:09;3.65;;;0.90;;
71734;SDS011;59577;52.122;5.406;2024-03-23T08:33:36;6.30;;;0.70;;
71734;SDS011;59577;52.122;5.406;2024-03-23T08:36:07;7.03;;;0.77;;
71734;SDS011;59577;52.122;5.406;2024-03-23T08:38:34;5.43;;;0.63;;
71734;SDS011;59577;52.122;5.406;2024-03-23T08:41:00;9.00;;;0.70;;
71734;SDS011;59577;52.122;5.406;2024-03-23T08:43:31;3.88;;;0.55;;
71734;SDS011;59577;52.122;5.406;2024-03-23T08:46:07;6.00;;;0.63;;
71734;SDS011;59577;52.122;5.406;2024-03-23T08:48:41;5.83;;;0.40;;
71734;SDS011;59577;52.122;5.406;2024-03-23T08:51:15;4.13;;;0.60;;
71734;SDS011;59577;52.122;5.406;2024-03-23T08:53:42;2.72;;;0.60;;
71734;SDS011;59577;52.122;5.406;2024-03-23T08:56:08;5.80;;;0.70;;
71734;SDS011;59577;52.122;5.406;2024-03-23T08:58:35;6.05;;;0.60;;
71734;SDS011;59577;52.122;5.406;2024-03-23T09:01:09;6.77;;;0.73;;
71734;SDS011;59577;52.122;5.406;2024-03-23T09:03:36;5.13;;;0.70;;
71734;SDS011;59577;52.122;5.406;2024-03-23T09:06:06;2.78;;;0.43;;
71734;SDS011;59577;52.122;5.406;2024-03-23T09:08:42;4.10;;;0.88;;
71734;SDS011;59577;52.122;5.406;2024-03-23T09:11:08;4.43;;;0.60;;
71734;SDS011;59577;52.122;5.406;2024-03-23T09:13:38;3.78;;;0.55;;
71734;SDS011;59577;52.122;5.406;2024-03-23T09:16:04;6.57;;;0.93;;
71734;SDS011;59577;52.122;5.406;2024-03-23T09:18:34;5.57;;;0.80;;
71734;SDS011;59577;52.122;5.406;2024-03-23T09:21:01;5.55;;;0.70;;
71734;SDS011;59577;52.122;5.406;2024-03-23T09:23:35;3.70;;;0.63;;
71734;SDS011;59577;52.122;5.406;2024-03-23T09:26:04;4.63;;;0.65;;
71734;SDS011;59577;52.122;5.406;2024-03-23T09:28:30;5.23;;;0.57;;
71734;SDS011;59577;52.122;5.406;2024-03-23T09:31:02;3.92;;;0.70;;
71734;SDS011;59577;52.122;5.406;2024-03-23T09:33:28;3.00;;;0.43;;
71734;SDS011;59577;52.122;5.406;2024-03-23T09:35:54;2.92;;;0.43;;
71734;SDS011;59577;52.122;5.406;2024-03-23T09:38:21;3.63;;;1.03;;
71734;SDS011;59577;52.122;5.406;2024-03-23T09:40:50;2.58;;;0.52;;
71734;SDS011;59577;52.122;5.406;2024-03-23T09:43:18;4.00;;;0.55;;
71734;SDS011;59577;52.122;5.406;2024-03-23T09:45:44;5.18;;;0.52;;
71734;SDS011;59577;52.122;5.406;2024-03-23T09:48:10;2.33;;;0.30;;
71734;SDS011;59577;52.122;5.406;2024-03-23T09:50:39;2.53;;;0.40;;
71734;SDS011;59577;52.122;5.406;2024-03-23T09:53:06;4.20;;;0.20;;
71734;SDS011;59577;52.122;5.406;2024-03-23T09:55:33;5.43;;;0.40;;
71734;SDS011;59577;52.122;5.406;2024-03-23T09:58:00;5.30;;;0.50;;
71734;SDS011;59577;52.122;5.406;2024-03-23T10:00:26;6.43;;;0.40;;
71734;SDS011;59577;52.122;5.406;2024-03-23T10:02:51;4.23;;;0.40;;
71734;SDS011;59577;52.122;5.406;2024-03-23T10:05:20;5.93;;;0.88;;
71734;SDS011;59577;52.122;5.406;2024-03-23T10:07:48;8.87;;;0.70;;
71734;SDS011;59577;52.122;5.406;2024-03-23T10:10:17;9.75;;;1.27;;
71734;SDS011;59577;52.122;5.406;2024-03-23T10:12:43;4.57;;;0.60;;
71734;SDS011;59577;52.122;5.406;2024-03-23T10:15:23;7.38;;;0.70;;
71734;SDS011;59577;52.122;5.406;2024-03-23T10:17:50;5.40;;;1.13;;
71734;SDS011;59577;52.122;5.406;2024-03-23T10:20:20;5.30;;;0.73;;
71734;SDS011;59577;52.122;5.406;2024-03-23T10:22:49;7.85;;;0.73;;
71734;SDS011;59577;52.122;5.406;2024-03-23T10:25:16;6.22;;;0.90;;
71734;SDS011;59577;52.122;5.406;2024-03-23T10:27:42;7.03;;;1.02;;
71734;SDS011;59577;52.122;5.406;2024-03-23T10:32:35;6.70;;;0.65;;
71734;SDS011;59577;52.122;5.406;2024-03-23T10:35:19;5.70;;;0.75;;
71734;SDS011;59577;52.122;5.406;2024-03-23T10:37:48;7.78;;;0.80;;
71734;SDS011;59577;52.122;5.406;2024-03-23T10:40:16;4.80;;;0.77;;
71734;SDS011;59577;52.122;5.406;2024-03-23T10:42:42;4.72;;;0.77;;
71734;SDS011;59577;52.122;5.406;2024-03-23T10:45:08;4.00;;;0.68;;
71734;SDS011;59577;52.122;5.406;2024-03-23T10:47:34;8.68;;;0.90;;
71734;SDS011;59577;52.122;5.406;2024-03-23T10:50:04;8.27;;;0.90;;
71734;SDS011;59577;52.122;5.406;2024-03-23T10:52:33;6.22;;;0.57;;
71734;SDS011;59577;52.122;5.406;2024-03-23T10:54:59;5.82;;;0.77;;
71734;SDS011;59577;52.122;5.406;2024-03-23T10:57:40;5.72;;;0.50;;
71734;SDS011;59577;52.122;5.406;2024-03-23T11:00:09;4.95;;;0.75;;
71734;SDS011;59577;52.122;5.406;2024-03-23T11:02:36;3.30;;;0.50;;
71734;SDS011;59577;52.122;5.406;2024-03-23T11:05:01;2.65;;;0.40;;
71734;SDS011;59577;52.122;5.406;2024-03-23T11:07:28;2.85;;;0.43;;
71734;SDS011;59577;52.122;5.406;2024-03-23T11:09:55;5.03;;;0.50;;
71734;SDS011;59577;52.122;5.406;2024-03-23T11:17:30;7.38;;;1.02;;
71734;SDS011;59577;52.122;5.406;2024-03-23T11:20:00;5.88;;;0.70;;
71734;SDS011;59577;52.122;5.406;2024-03-23T11:22:39;3.10;;;0.50;;
71734;SDS011;59577;52.122;5.406;2024-03-23T11:27:51;4.15;;;0.73;;
71734;SDS011;59577;52.122;5.406;2024-03-23T11:30:18;3.55;;;0.45;;
71734;SDS011;59577;52.122;5.406;2024-03-23T11:32:52;3.20;;;0.77;;
71734;SDS011;59577;52.122;5.406;2024-03-23T11:35:24;9.53;;;1.00;;
71734;SDS011;59577;52.122;5.406;2024-03-23T11:40:27;3.80;;;0.63;;
71734;SDS011;59577;52.122;5.406;2024-03-23T11:42:56;5.77;;;0.90;;
71734;SDS011;59577;52.122;5.406;2024-03-23T11:45:26;5.72;;;0.60;;
71734;SDS011;59577;52.122;5.406;2024-03-23T11:48:04;4.03;;;0.57;;
71734;SDS011;59577;52.122;5.406;2024-03-23T11:50:35;6.77;;;0.60;;
71734;SDS011;59577;52.122;5.406;2024-03-23T11:53:06;5.50;;;0.82;;
71734;SDS011;59577;52.122;5.406;2024-03-23T11:55:54;6.40;;;0.65;;
71734;SDS011;59577;52.122;5.406;2024-03-23T11:58:24;6.63;;;0.70;;
71734;SDS011;59577;52.122;5.406;2024-03-23T12:00:52;4.70;;;0.50;;
71734;SDS011;59577;52.122;5.406;2024-03-23T12:03:28;4.20;;;0.50;;
71734;SDS011;59577;52.122;5.406;2024-03-23T12:05:54;5.43;;;0.57;;
71734;SDS011;59577;52.122;5.406;2024-03-23T12:11:12;8.05;;;0.60;;
71734;SDS011;59577;52.122;5.406;2024-03-23T12:13:40;9.05;;;1.08;;
71734;SDS011;59577;52.122;5.406;2024-03-23T12:16:12;3.47;;;0.40;;
71734;SDS011;59577;52.122;5.406;2024-03-23T12:18:40;2.63;;;0.50;;
71734;SDS011;59577;52.122;5.406;2024-03-23T12:21:07;6.05;;;0.70;;
71734;SDS011;59577;52.122;5.406;2024-03-23T12:23:33;5.70;;;0.80;;
71734;SDS011;59577;52.122;5.406;2024-03-23T12:25:58;9.27;;;0.87;;
71734;SDS011;59577;52.122;5.406;2024-03-23T12:28:24;3.70;;;0.70;;
71734;SDS011;59577;52.122;5.406;2024-03-23T12:30:51;5.28;;;0.70;;
71734;SDS011;59577;52.122;5.406;2024-03-23T12:33:18;4.77;;;0.43;;
71734;SDS011;59577;52.122;5.406;2024-03-23T12:35:44;5.85;;;0.50;;
71734;SDS011;59577;52.122;5.406;2024-03-23T12:38:09;6.80;;;0.70;;
71734;SDS011;59577;52.122;5.406;2024-03-23T12:40:35;3.73;;;0.47;;
71734;SDS011;59577;52.122;5.406;2024-03-23T12:43:00;3.90;;;0.53;;
71734;SDS011;59577;52.122;5.406;2024-03-23T12:45:26;2.27;;;0.40;;
71734;SDS011;59577;52.122;5.406;2024-03-23T12:47:52;4.50;;;0.70;;
71734;SDS011;59577;52.122;5.406;2024-03-23T12:50:19;9.23;;;0.77;;
71734;SDS011;59577;52.122;5.406;2024-03-23T12:52:45;5.90;;;0.57;;
71734;SDS011;59577;52.122;5.406;2024-03-23T12:55:11;6.45;;;0.60;;
71734;SDS011;59577;52.122;5.406;2024-03-23T12:57:37;4.80;;;0.30;;
71734;SDS011;59577;52.122;5.406;2024-03-23T13:00:03;2.33;;;0.20;;
71734;SDS011;59577;52.122;5.406;2024-03-23T13:02:29;9.37;;;0.70;;
71734;SDS011;59577;52.122;5.406;2024-03-23T13:04:55;6.97;;;0.50;;
71734;SDS011;59577;52.122;5.406;2024-03-23T13:07:22;2.53;;;0.30;;
71734;SDS011;59577;52.122;5.406;2024-03-23T13:09:51;6.50;;;0.50;;
71734;SDS011;59577;52.122;5.406;2024-03-23T13:12:18;4.05;;;0.47;;
71734;SDS011;59577;52.122;5.406;2024-03-23T13:14:45;5.70;;;0.40;;
71734;SDS011;59577;52.122;5.406;2024-03-23T13:17:11;4.50;;;0.73;;
71734;SDS011;59577;52.122;5.406;2024-03-23T13:19:41;4.20;;;0.43;;
71734;SDS011;59577;52.122;5.406;2024-03-23T13:22:06;3.42;;;0.35;;
71734;SDS011;59577;52.122;5.406;2024-03-23T13:24:32;3.50;;;0.60;;
71734;SDS011;59577;52.122;5.406;2024-03-23T13:26:57;3.05;;;0.57;;
71734;SDS011;59577;52.122;5.406;2024-03-23T13:29:23;1.13;;;0.10;;
71734;SDS011;59577;52.122;5.406;2024-03-23T13:31:50;1.38;;;0.10;;
71734;SDS011;59577;52.122;5.406;2024-03-23T13:34:16;1.05;;;0.00;;
71734;SDS011;59577;52.122;5.406;2024-03-23T13:36:46;3.05;;;0.10;;
71734;SDS011;59577;52.122;5.406;2024-03-23T13:39:12;2.33;;;0.30;;
71734;SDS011;59577;52.122;5.406;2024-03-23T13:41:39;5.13;;;0.20;;
71734;SDS011;59577;52.122;5.406;2024-03-23T13:44:09;0.60;;;0.20;;
71734;SDS011;59577;52.122;5.406;2024-03-23T13:46:36;2.58;;;0.20;;
71734;SDS011;59577;52.122;5.406;2024-03-23T13:49:02;2.28;;;0.13;;
71734;SDS011;59577;52.122;5.406;2024-03-23T13:51:28;4.07;;;0.33;;
71734;SDS011;59577;52.122;5.406;2024-03-23T13:53:54;3.97;;;0.20;;
71734;SDS011;59577;52.122;5.406;2024-03-23T13:56:20;1.92;;;0.30;;
71734;SDS011;59577;52.122;5.406;2024-03-23T13:58:46;1.80;;;0.10;;
71734;SDS011;59577;52.122;5.406;2024-03-23T14:01:15;3.78;;;0.43;;
71734;SDS011;59577;52.122;5.406;2024-03-23T14:03:42;2.25;;;0.22;;
71734;SDS011;59577;52.122;5.406;2024-03-23T14:06:08;7.23;;;0.40;;
71734;SDS011;59577;52.122;5.406;2024-03-23T14:08:35;5.68;;;0.47;;
71734;SDS011;59577;52.122;5.406;2024-03-23T14:11:04;2.47;;;0.20;;
71734;SDS011;59577;52.122;5.406;2024-03-23T14:13:30;6.90;;;0.65;;
71734;SDS011;59577;52.122;5.406;2024-03-23T14:15:57;7.55;;;0.50;;
71734;SDS011;59577;52.122;5.406;2024-03-23T14:18:23;3.90;;;0.30;;
71734;SDS011;59577;52.122;5.406;2024-03-23T14:20:49;5.30;;;0.50;;
71734;SDS011;59577;52.122;5.406;2024-03-23T14:23:15;2.88;;;0.45;;
71734;SDS011;59577;52.122;5.406;2024-03-23T14:25:41;2.13;;;0.30;;
71734;SDS011;59577;52.122;5.406;2024-03-23T14:28:07;4.10;;;0.52;;
71734;SDS011;59577;52.122;5.406;2024-03-23T14:30:39;5.32;;;0.57;;
71734;SDS011;59577;52.122;5.406;2024-03-23T14:33:05;4.77;;;0.40;;
71734;SDS011;59577;52.122;5.406;2024-03-23T14:35:30;5.07;;;0.57;;
71734;SDS011;59577;52.122;5.406;2024-03-23T14:37:58;3.63;;;0.50;;
71734;SDS011;59577;52.122;5.406;2024-03-23T14:40:24;3.25;;;0.32;;
71734;SDS011;59577;52.122;5.406;2024-03-23T14:42:52;5.38;;;0.32;;
71734;SDS011;59577;52.122;5.406;2024-03-23T14:45:21;6.70;;;0.40;;
71734;SDS011;59577;52.122;5.406;2024-03-23T14:47:48;6.70;;;0.75;;
71734;SDS011;59577;52.122;5.406;2024-03-23T14:50:14;3.43;;;0.37;;
71734;SDS011;59577;52.122;5.406;2024-03-23T14:52:44;4.55;;;0.52;;
71734;SDS011;59577;52.122;5.406;2024-03-23T14:55:11;2.87;;;0.20;;
71734;SDS011;59577;52.122;5.406;2024-03-23T14:57:37;2.85;;;0.30;;
71734;SDS011;59577;52.122;5.406;2024-03-23T15:00:06;1.00;;;0.20;;
71734;SDS011;59577;52.122;5.406;2024-03-23T15:02:33;4.63;;;0.50;;
71734;SDS011;59577;52.122;5.406;2024-03-23T15:04:59;4.18;;;0.60;;
71734;SDS011;59577;52.122;5.406;2024-03-23T15:07:26;5.63;;;0.30;;
71734;SDS011;59577;52.122;5.406;2024-03-23T15:09:52;6.57;;;0.30;;
71734;SDS011;59577;52.122;5.406;2024-03-23T15:12:19;5.07;;;0.45;;
71734;SDS011;59577;52.122;5.406;2024-03-23T15:14:44;3.60;;;0.40;;
71734;SDS011;59577;52.122;5.406;2024-03-23T15:17:11;4.13;;;0.30;;
71734;SDS011;59577;52.122;5.406;2024-03-23T15:19:36;2.33;;;0.30;;
71734;SDS011;59577;52.122;5.406;2024-03-23T15:22:02;3.50;;;0.20;;
71734;SDS011;59577;52.122;5.406;2024-03-23T15:24:28;2.03;;;0.30;;
71734;SDS011;59577;52.122;5.406;2024-03-23T15:26:53;4.03;;;0.20;;
71734;SDS011;59577;52.122;5.406;2024-03-23T15:29:20;2.70;;;0.27;;
71734;SDS011;59577;52.122;5.406;2024-03-23T15:31:47;3.28;;;0.25;;
71734;SDS011;59577;52.122;5.406;2024-03-23T15:34:16;2.70;;;0.40;;
71734;SDS011;59577;52.122;5.406;2024-03-23T15:36:41;2.73;;;0.20;;
71734;SDS011;59577;52.122;5.406;2024-03-23T15:39:07;4.83;;;0.40;;
71734;SDS011;59577;52.122;5.406;2024-03-23T15:41:33;1.58;;;0.20;;
71734;SDS011;59577;52.122;5.406;2024-03-23T15:44:00;3.15;;;0.35;;
71734;SDS011;59577;52.122;5.406;2024-03-23T15:46:26;5.82;;;0.70;;
71734;SDS011;59577;52.122;5.406;2024-03-23T15:48:52;4.20;;;0.20;;
71734;SDS011;59577;52.122;5.406;2024-03-23T15:51:20;5.67;;;0.87;;
71734;SDS011;59577;52.122;5.406;2024-03-23T15:53:45;2.97;;;0.30;;
71734;SDS011;59577;52.122;5.406;2024-03-23T15:56:11;2.60;;;0.45;;